Time;durP1;ratioP1;P1;durP2;ratioP2;P2;SDS_P1;SDS_P2;PMS_P1;PMS_P2;Temp;Humidity;BMP_temperature;BMP_pressure;BME280_temperature;BME280_humidity;BME280_pressure;Samples;Min_cycle;Max_cycle;Signal;HPM_P1;HPM_P2
2023/05/15 00:00:50;;;;;;;22.60;17.67;;;13.90;99.90;;;;;;5044099;28;20297;-60
2023/05/15 00:03:17;;;;;;;23.13;16.87;;;13.90;99.90;;;;;;5035011;28;20768;-60
2023/05/15 00:05:44;;;;;;;23.27;16.87;;;13.90;99.90;;;;;;5035830;28;20324;-61
2023/05/15 00:08:11;;;;;;;23.47;17.83;;;13.90;99.90;;;;;;5018733;28;20242;-60
2023/05/15 00:10:38;;;;;;;27.03;18.13;;;13.70;99.90;;;;;;5039080;28;20278;-60
2023/05/15 00:13:10;;;;;;;26.70;19.37;;;13.50;99.90;;;;;;5041791;28;20675;-60
2023/05/15 00:15:37;;;;;;;24.47;17.77;;;13.50;99.90;;;;;;5043928;28;20196;-64
2023/05/15 00:18:04;;;;;;;24.97;18.00;;;13.60;99.90;;;;;;5045786;28;20218;-60
2023/05/15 00:20:31;;;;;;;21.77;18.27;;;13.40;99.90;;;;;;5041864;28;20201;-60
2023/05/15 00:22:58;;;;;;;24.10;17.83;;;13.40;99.90;;;;;;5037521;28;20234;-61
2023/05/15 00:25:25;;;;;;;26.70;18.83;;;13.40;99.90;;;;;;5042962;28;20208;-60
2023/05/15 00:27:52;;;;;;;25.37;18.50;;;13.50;99.90;;;;;;5039732;28;20236;-60
2023/05/15 00:30:19;;;;;;;27.30;17.57;;;13.50;99.90;;;;;;5024560;28;20254;-60
2023/05/15 00:32:46;;;;;;;24.03;18.13;;;13.20;99.90;;;;;;5044072;28;20267;-63
2023/05/15 00:35:13;;;;;;;23.00;17.30;;;13.20;99.90;;;;;;5040792;28;20192;-60
2023/05/15 00:37:39;;;;;;;26.13;17.47;;;13.30;99.90;;;;;;5040356;28;20260;-60
2023/05/15 00:40:09;;;;;;;26.37;17.50;;;13.20;99.90;;;;;;5043769;28;20204;-60
2023/05/15 00:42:36;;;;;;;24.93;16.80;;;13.20;99.90;;;;;;5043343;28;20250;-60
2023/05/15 00:45:06;;;;;;;22.97;17.80;;;13.20;99.90;;;;;;5042407;28;20210;-60
2023/05/15 00:47:34;;;;;;;24.70;17.83;;;13.10;99.90;;;;;;5040579;28;20309;-60
2023/05/15 00:50:01;;;;;;;22.30;17.67;;;13.00;99.90;;;;;;5044113;28;20205;-60
2023/05/15 00:52:28;;;;;;;23.20;17.60;;;13.10;99.90;;;;;;5038738;28;20205;-60
2023/05/15 00:54:55;;;;;;;25.40;18.03;;;13.10;99.90;;;;;;5038927;28;20192;-60
2023/05/15 00:57:24;;;;;;;25.00;17.73;;;13.10;99.90;;;;;;5038931;28;20236;-60
2023/05/15 00:59:51;;;;;;;28.73;18.23;;;13.10;99.90;;;;;;5042030;28;20201;-60
2023/05/15 01:02:18;;;;;;;27.37;18.43;;;13.10;99.90;;;;;;5041058;28;20712;-60
2023/05/15 01:04:46;;;;;;;26.53;18.13;;;13.10;99.90;;;;;;5037070;28;20822;-63
2023/05/15 01:07:12;;;;;;;27.87;19.63;;;13.00;99.90;;;;;;5041851;28;20251;-60
2023/05/15 01:09:43;;;;;;;23.80;17.80;;;12.90;99.90;;;;;;5041494;28;20714;-60
2023/05/15 01:12:13;;;;;;;26.37;18.17;;;13.10;99.90;;;;;;5043396;28;20566;-66
2023/05/15 01:14:40;;;;;;;28.20;19.60;;;13.00;99.90;;;;;;5039816;28;20575;-59
2023/05/15 01:17:07;;;;;;;26.03;19.27;;;12.80;99.90;;;;;;5039770;28;20201;-61
2023/05/15 01:19:35;;;;;;;28.40;20.30;;;12.90;99.90;;;;;;5040413;28;20573;-59
2023/05/15 01:22:17;;;;;;;28.60;20.43;;;12.80;99.90;;;;;;5034501;28;20417;-61
2023/05/15 01:24:47;;;;;;;27.50;19.63;;;12.90;99.90;;;;;;5053392;28;20253;-61
2023/05/15 01:27:34;;;;;;;27.43;19.83;;;13.00;99.90;;;;;;5041662;28;20201;-59
2023/05/15 01:30:16;;;;;;;27.60;18.80;;;12.90;99.90;;;;;;5041202;28;20252;-59
2023/05/15 01:32:49;;;;;;;29.93;20.30;;;12.70;99.90;;;;;;5038947;28;20247;-59
2023/05/15 01:35:24;;;;;;;26.53;19.57;;;12.70;99.90;;;;;;5040786;28;20192;-59
2023/05/15 01:38:03;;;;;;;28.03;19.17;;;12.80;99.90;;;;;;5043508;28;20200;-59
2023/05/15 01:40:30;;;;;;;26.03;19.70;;;12.80;99.90;;;;;;5035900;28;20224;-61
2023/05/15 01:43:04;;;;;;;24.80;20.20;;;12.90;99.90;;;;;;5042341;28;20198;-59
2023/05/15 01:45:32;;;;;;;24.73;19.70;;;12.90;99.90;;;;;;5041942;28;20193;-59
2023/05/15 01:48:00;;;;;;;31.83;20.10;;;12.90;99.90;;;;;;5043441;28;20277;-59
2023/05/15 01:50:31;;;;;;;26.57;19.97;;;12.90;99.90;;;;;;5039559;28;20208;-60
2023/05/15 01:53:01;;;;;;;28.90;20.93;;;12.90;99.90;;;;;;5035525;28;20242;-60
2023/05/15 01:55:29;;;;;;;27.50;19.73;;;12.90;99.90;;;;;;5038834;28;20881;-60
2023/05/15 01:58:00;;;;;;;25.93;20.20;;;12.70;99.90;;;;;;5041340;28;20219;-60
2023/05/15 02:00:28;;;;;;;29.90;20.33;;;12.70;99.90;;;;;;5039231;28;20202;-60
2023/05/15 02:02:56;;;;;;;32.63;23.03;;;12.50;99.90;;;;;;5042259;28;20719;-60
2023/05/15 02:05:25;;;;;;;31.43;21.23;;;12.60;99.90;;;;;;5042864;28;20570;-60
2023/05/15 02:07:53;;;;;;;27.90;20.87;;;12.70;99.90;;;;;;5033562;28;20235;-60
2023/05/15 02:10:21;;;;;;;30.03;21.37;;;12.60;99.90;;;;;;5036521;28;20310;-61
2023/05/15 02:12:49;;;;;;;31.00;23.07;;;12.40;99.90;;;;;;5039524;28;20212;-61
2023/05/15 02:15:17;;;;;;;31.00;21.07;;;12.50;99.90;;;;;;5033211;28;20204;-59
2023/05/15 02:17:44;;;;;;;27.73;21.67;;;12.50;99.90;;;;;;5041104;28;20195;-59
2023/05/15 02:20:11;;;;;;;31.87;21.77;;;12.60;99.90;;;;;;5039932;28;20200;-59
2023/05/15 02:22:38;;;;;;;33.23;22.47;;;12.60;99.90;;;;;;5039989;28;20208;-63
2023/05/15 02:25:05;;;;;;;30.03;22.97;;;12.60;99.90;;;;;;5040687;28;20252;-60
2023/05/15 02:28:03;;;;;;;35.77;23.10;;;12.50;99.90;;;;;;5045059;28;20295;-60
2023/05/15 02:30:39;;;;;;;33.00;22.57;;;12.40;99.90;;;;;;5044095;28;20199;-59
2023/05/15 02:33:30;;;;;;;31.83;22.50;;;12.40;99.90;;;;;;5058686;28;20312;-60
2023/05/15 02:36:10;;;;;;;32.87;23.23;;;12.40;99.90;;;;;;5041825;28;20602;-61
2023/05/15 02:38:45;;;;;;;34.63;23.60;;;12.20;99.90;;;;;;5038852;28;20207;-59
2023/05/15 02:41:13;;;;;;;33.70;24.10;;;12.30;99.90;;;;;;5042801;28;20211;-60
2023/05/15 02:43:41;;;;;;;33.17;23.20;;;12.40;99.90;;;;;;5041134;28;20198;-60
2023/05/15 02:46:09;;;;;;;33.20;23.43;;;12.40;99.90;;;;;;5046218;28;20245;-63
2023/05/15 02:48:40;;;;;;;34.73;22.60;;;12.40;99.90;;;;;;5046144;28;20215;-60
2023/05/15 02:51:08;;;;;;;35.77;24.30;;;12.30;99.90;;;;;;5042482;28;20197;-61
2023/05/15 02:53:41;;;;;;;34.40;23.17;;;12.30;99.90;;;;;;5046158;28;20206;-60
2023/05/15 02:56:08;;;;;;;34.87;22.87;;;12.30;99.90;;;;;;5044340;28;20659;-60
2023/05/15 02:58:36;;;;;;;34.37;23.80;;;12.30;99.90;;;;;;5040125;28;20756;-60
2023/05/15 03:01:03;;;;;;;34.90;24.43;;;12.20;99.90;;;;;;5045038;28;20712;-60
2023/05/15 03:03:30;;;;;;;37.47;22.93;;;12.20;99.90;;;;;;5045000;28;20664;-60
2023/05/15 03:05:59;;;;;;;35.60;23.57;;;12.20;99.90;;;;;;5043441;28;20623;-60
2023/05/15 03:08:26;;;;;;;37.57;23.70;;;12.20;99.90;;;;;;5044817;28;20327;-60
2023/05/15 03:10:53;;;;;;;35.67;24.73;;;12.10;99.90;;;;;;5044922;28;20204;-60
2023/05/15 03:13:20;;;;;;;34.10;24.10;;;12.20;99.90;;;;;;5044766;28;20206;-60
2023/05/15 03:15:47;;;;;;;39.23;23.87;;;12.20;99.90;;;;;;5057027;28;20237;-60
2023/05/15 03:18:14;;;;;;;34.73;22.87;;;12.20;99.90;;;;;;5042483;28;20249;-60
2023/05/15 03:20:46;;;;;;;33.50;21.63;;;12.10;99.90;;;;;;5042429;28;20240;-60
2023/05/15 03:23:13;;;;;;;37.83;23.43;;;12.10;99.90;;;;;;5045912;28;20735;-60
2023/05/15 03:25:40;;;;;;;32.43;22.90;;;12.20;99.90;;;;;;5039014;28;20728;-60
2023/05/15 03:28:06;;;;;;;30.90;21.20;;;12.20;99.90;;;;;;5045547;28;20738;-60
2023/05/15 03:30:33;;;;;;;34.20;23.07;;;12.30;99.90;;;;;;5044700;28;20629;-60
2023/05/15 03:33:02;;;;;;;33.33;22.23;;;12.30;99.90;;;;;;5043510;28;20227;-60
2023/05/15 03:35:31;;;;;;;30.40;21.90;;;12.20;99.90;;;;;;5046784;28;20200;-59
2023/05/15 03:37:58;;;;;;;32.00;21.63;;;12.20;99.90;;;;;;5042099;28;20203;-59
2023/05/15 03:40:25;;;;;;;34.67;21.23;;;12.20;99.90;;;;;;5042235;28;20204;-59
2023/05/15 03:42:52;;;;;;;31.00;21.13;;;12.20;99.90;;;;;;5045051;28;20666;-63
2023/05/15 03:45:19;;;;;;;29.40;20.53;;;12.20;99.90;;;;;;5039060;28;20563;-60
2023/05/15 03:47:47;;;;;;;30.10;21.83;;;12.20;99.90;;;;;;5044107;28;20298;-60
2023/05/15 03:50:15;;;;;;;32.07;21.47;;;12.20;99.90;;;;;;5044629;28;20231;-60
2023/05/15 03:52:42;;;;;;;28.83;20.07;;;12.10;99.90;;;;;;5041645;28;20705;-62
2023/05/15 03:55:09;;;;;;;35.63;22.53;;;12.00;99.90;;;;;;5044328;28;20625;-59
2023/05/15 03:57:36;;;;;;;34.20;22.43;;;12.00;99.90;;;;;;5044078;28;20275;-59
2023/05/15 04:00:08;;;;;;;34.37;21.07;;;11.70;99.90;;;;;;5025319;28;20768;-60
2023/05/15 04:02:36;;;;;;;32.50;21.57;;;11.50;99.90;;;;;;5041085;28;20209;-60
2023/05/15 04:05:04;;;;;;;33.17;21.77;;;11.70;99.90;;;;;;5041566;28;20213;-60
2023/05/15 04:07:33;;;;;;;33.37;22.43;;;11.80;99.90;;;;;;5040365;28;20201;-59
2023/05/15 04:10:00;;;;;;;33.33;21.17;;;11.90;99.90;;;;;;5038726;28;20660;-59
2023/05/15 04:12:32;;;;;;;31.60;21.60;;;11.80;99.90;;;;;;5041825;28;20258;-59
2023/05/15 04:15:16;;;;;;;31.23;20.73;;;11.60;99.90;;;;;;5045605;28;20203;-60
2023/05/15 04:17:45;;;;;;;33.60;20.40;;;11.80;99.90;;;;;;5043100;28;20211;-61
2023/05/15 04:20:14;;;;;;;32.13;20.20;;;11.80;99.90;;;;;;5045965;28;20197;-60
2023/05/15 04:22:41;;;;;;;27.70;18.90;;;11.80;99.90;;;;;;5040674;28;20202;-60
2023/05/15 04:25:13;;;;;;;30.50;21.30;;;12.00;99.90;;;;;;5056008;28;20649;-59
2023/05/15 04:27:41;;;;;;;28.80;20.77;;;11.90;99.90;;;;;;5042220;28;20206;-59
2023/05/15 04:30:08;;;;;;;30.77;21.13;;;11.90;99.90;;;;;;5042913;28;20283;-60
2023/05/15 04:32:36;;;;;;;31.07;20.23;;;11.80;99.90;;;;;;5036731;28;20230;-59
2023/05/15 04:35:08;;;;;;;24.17;18.37;;;11.90;99.90;;;;;;5040798;28;20203;-60
2023/05/15 04:37:37;;;;;;;26.30;19.17;;;11.70;99.90;;;;;;5031404;28;20206;-59
2023/05/15 04:40:07;;;;;;;28.50;18.83;;;11.80;99.90;;;;;;5039933;28;20576;-61
2023/05/15 04:42:35;;;;;;;24.87;18.97;;;12.00;99.90;;;;;;5035299;28;20290;-60
2023/05/15 04:45:05;;;;;;;25.37;18.90;;;11.80;99.90;;;;;;5040683;28;20215;-60
2023/05/15 04:47:32;;;;;;;25.33;18.90;;;11.90;99.90;;;;;;5039436;28;20205;-59
2023/05/15 04:49:59;;;;;;;27.57;19.60;;;11.70;99.90;;;;;;5038685;28;20218;-60
2023/05/15 04:52:26;;;;;;;27.73;19.57;;;11.80;99.90;;;;;;5040492;28;20654;-60
2023/05/15 04:54:54;;;;;;;26.83;19.73;;;11.80;99.90;;;;;;5034216;28;20233;-60
2023/05/15 04:57:22;;;;;;;30.83;19.87;;;11.90;99.90;;;;;;5041972;28;20318;-60
2023/05/15 04:59:49;;;;;;;27.43;19.27;;;11.80;99.90;;;;;;5042856;28;20618;-60
2023/05/15 05:02:21;;;;;;;29.80;19.97;;;11.90;99.90;;;;;;5038220;28;20670;-60
2023/05/15 05:04:48;;;;;;;29.13;20.17;;;11.90;99.90;;;;;;5036941;28;20207;-62
2023/05/15 05:07:16;;;;;;;31.27;20.03;;;11.80;99.90;;;;;;5039564;28;20325;-60
2023/05/15 05:09:43;;;;;;;28.93;20.50;;;11.80;99.90;;;;;;5040013;28;20238;-59
2023/05/15 05:12:10;;;;;;;30.87;20.70;;;11.70;99.90;;;;;;5039311;28;20210;-60
2023/05/15 05:14:39;;;;;;;31.40;20.33;;;11.70;99.90;;;;;;5036148;28;20203;-60
2023/05/15 05:17:06;;;;;;;31.83;20.33;;;11.80;99.90;;;;;;5043069;28;20899;-61
2023/05/15 05:19:33;;;;;;;30.80;18.47;;;11.70;99.90;;;;;;5039326;28;20614;-58
2023/05/15 05:22:03;;;;;;;27.50;18.87;;;11.60;99.90;;;;;;5038242;28;20649;-61
2023/05/15 05:24:31;;;;;;;30.23;18.43;;;11.80;99.90;;;;;;5037949;28;20206;-61
2023/05/15 05:26:58;;;;;;;26.07;17.17;;;11.70;99.90;;;;;;5041307;28;20735;-59
2023/05/15 05:29:25;;;;;;;28.40;17.80;;;11.60;99.90;;;;;;5041347;28;20623;-60
2023/05/15 05:31:52;;;;;;;27.67;18.70;;;11.40;99.90;;;;;;5043805;28;20201;-60
2023/05/15 05:34:19;;;;;;;28.30;17.57;;;11.40;99.90;;;;;;5043433;28;20664;-60
2023/05/15 05:36:46;;;;;;;28.40;18.53;;;11.70;99.90;;;;;;5041438;28;20268;-63
2023/05/15 05:39:15;;;;;;;29.43;19.70;;;11.70;99.90;;;;;;5038596;28;20225;-60
2023/05/15 05:41:42;;;;;;;30.50;18.70;;;11.90;99.90;;;;;;5056302;28;20293;-60
2023/05/15 05:44:09;;;;;;;28.97;19.50;;;11.90;99.90;;;;;;5033039;28;20775;-60
2023/05/15 05:46:36;;;;;;;28.73;19.00;;;11.50;99.90;;;;;;4677036;28;9999626;-61
2023/05/15 05:49:03;;;;;;;31.70;21.00;;;11.60;99.90;;;;;;5019017;28;20667;-60
2023/05/15 05:51:30;;;;;;;31.37;21.73;;;11.80;99.90;;;;;;5025419;28;20281;-60
2023/05/15 05:53:57;;;;;;;33.17;22.20;;;11.70;99.90;;;;;;5037912;28;20199;-60
2023/05/15 05:56:25;;;;;;;35.07;23.00;;;11.80;99.90;;;;;;5023967;28;20243;-60
2023/05/15 05:58:52;;;;;;;33.33;22.07;;;11.90;99.90;;;;;;5032851;28;20612;-60
2023/05/15 06:01:20;;;;;;;36.00;23.03;;;12.00;99.90;;;;;;5019870;28;20687;-60
2023/05/15 06:03:47;;;;;;;33.10;21.33;;;12.20;99.90;;;;;;5015811;28;20246;-60
2023/05/15 06:06:14;;;;;;;30.87;21.53;;;12.10;99.90;;;;;;5038632;28;20606;-60
2023/05/15 06:08:41;;;;;;;31.17;21.33;;;12.30;99.90;;;;;;5040942;28;20891;-60
2023/05/15 06:11:08;;;;;;;30.17;21.60;;;12.30;99.90;;;;;;5030409;28;20664;-61
2023/05/15 06:13:34;;;;;;;31.23;22.97;;;12.40;99.90;;;;;;5038147;28;20529;-60
2023/05/15 06:16:01;;;;;;;30.50;21.93;;;12.40;99.90;;;;;;5029999;28;20202;-60
2023/05/15 06:18:28;;;;;;;31.83;21.60;;;12.30;99.90;;;;;;5049104;28;22096;-60
2023/05/15 06:20:59;;;;;;;30.43;23.07;;;12.50;99.90;;;;;;5031610;28;20649;-60
2023/05/15 06:23:26;;;;;;;31.60;23.53;;;12.80;99.90;;;;;;5037028;28;20230;-61
2023/05/15 06:25:53;;;;;;;32.07;22.07;;;12.90;99.90;;;;;;5037714;28;20552;-60
2023/05/15 06:28:20;;;;;;;31.77;23.67;;;13.10;99.90;;;;;;5037468;28;20206;-60
2023/05/15 06:30:47;;;;;;;31.20;23.23;;;13.20;99.90;;;;;;5032264;28;20286;-60
2023/05/15 06:33:14;;;;;;;28.23;21.53;;;13.00;99.90;;;;;;5035524;28;20380;-60
2023/05/15 06:35:41;;;;;;;29.67;22.53;;;12.90;99.90;;;;;;5041168;28;20207;-60
2023/05/15 06:38:08;;;;;;;31.10;21.87;;;13.00;99.90;;;;;;5037084;28;20299;-60
2023/05/15 06:40:35;;;;;;;30.23;21.00;;;13.00;99.90;;;;;;5041284;28;20248;-60
2023/05/15 06:43:02;;;;;;;30.73;23.13;;;13.30;99.90;;;;;;5041458;28;20201;-60
2023/05/15 06:45:30;;;;;;;32.77;22.63;;;13.40;99.90;;;;;;5039925;28;20347;-60
2023/05/15 06:47:57;;;;;;;30.60;23.23;;;13.60;99.90;;;;;;5034194;28;20211;-59
2023/05/15 06:50:27;;;;;;;28.83;22.67;;;13.70;99.90;;;;;;5039865;28;20252;-59
2023/05/15 06:52:54;;;;;;;30.23;21.97;;;13.90;99.90;;;;;;5035156;28;20204;-59
2023/05/15 06:55:21;;;;;;;28.87;22.07;;;14.00;99.90;;;;;;5034673;28;20199;-60
2023/05/15 06:57:48;;;;;;;26.50;20.83;;;13.70;99.90;;;;;;5037090;28;20291;-62
2023/05/15 07:00:15;;;;;;;28.20;20.97;;;13.80;99.90;;;;;;5034635;28;20251;-61
2023/05/15 07:02:42;;;;;;;30.27;21.77;;;13.70;99.90;;;;;;5036983;28;20225;-60
2023/05/15 07:05:10;;;;;;;28.00;21.07;;;13.50;99.90;;;;;;5038229;28;20219;-59
2023/05/15 07:07:37;;;;;;;26.03;21.80;;;13.80;99.90;;;;;;5042874;28;20745;-60
2023/05/15 07:10:05;;;;;;;29.00;21.00;;;13.70;99.90;;;;;;5041844;28;20321;-60
2023/05/15 07:12:33;;;;;;;29.23;21.17;;;13.90;99.90;;;;;;5056157;28;20658;-61
2023/05/15 07:15:00;;;;;;;28.07;19.93;;;14.10;99.90;;;;;;5043706;28;20231;-61
2023/05/15 07:17:26;;;;;;;25.70;20.13;;;14.00;99.90;;;;;;5038773;28;20713;-60
2023/05/15 07:19:53;;;;;;;29.67;20.23;;;13.80;99.90;;;;;;5034736;28;20210;-60
2023/05/15 07:22:20;;;;;;;26.60;18.40;;;13.70;99.90;;;;;;5034602;28;20305;-60
2023/05/15 07:24:47;;;;;;;24.57;19.37;;;13.80;99.90;;;;;;5033437;28;20204;-60
2023/05/15 07:27:14;;;;;;;24.83;19.00;;;13.90;99.90;;;;;;5036558;28;20299;-61
2023/05/15 07:29:41;;;;;;;26.20;19.20;;;13.90;99.90;;;;;;5040405;28;20257;-60
2023/05/15 07:32:08;;;;;;;24.67;19.23;;;14.10;99.90;;;;;;5040535;28;20304;-60
2023/05/15 07:34:35;;;;;;;23.13;18.20;;;14.00;99.90;;;;;;5042868;28;22076;-60
2023/05/15 07:37:01;;;;;;;23.80;17.93;;;14.20;99.90;;;;;;5032204;28;20214;-60
2023/05/15 07:39:28;;;;;;;27.30;21.03;;;14.00;99.90;;;;;;5037966;28;20228;-60
2023/05/15 07:41:55;;;;;;;26.60;19.30;;;13.90;99.90;;;;;;5037414;28;20286;-61
2023/05/15 07:44:22;;;;;;;24.40;17.50;;;14.20;99.90;;;;;;5035782;28;20197;-63
2023/05/15 07:46:49;;;;;;;27.63;19.30;;;14.30;99.90;;;;;;5029210;28;20243;-61
2023/05/15 07:49:16;;;;;;;22.00;17.90;;;14.20;99.90;;;;;;5034666;28;20208;-60
2023/05/15 07:51:43;;;;;;;25.43;18.47;;;14.20;99.90;;;;;;5031055;28;20206;-60
2023/05/15 07:54:10;;;;;;;24.93;17.77;;;14.40;99.90;;;;;;5007209;28;20296;-61
2023/05/15 07:56:38;;;;;;;23.67;17.70;;;14.60;99.90;;;;;;5040103;28;20208;-62
2023/05/15 07:59:05;;;;;;;23.43;16.80;;;14.40;99.90;;;;;;5034461;28;20214;-59
2023/05/15 08:01:32;;;;;;;22.80;18.10;;;15.00;99.90;;;;;;5039384;28;20263;-59
2023/05/15 08:03:59;;;;;;;20.93;17.17;;;14.90;99.90;;;;;;5034050;28;20222;-60
2023/05/15 08:06:26;;;;;;;21.53;16.33;;;15.60;99.90;;;;;;5043686;28;20200;-62
2023/05/15 08:08:53;;;;;;;22.10;16.73;;;16.00;99.90;;;;;;5023437;28;20213;-60
2023/05/15 08:11:20;;;;;;;19.83;16.27;;;15.80;99.90;;;;;;5019343;28;20247;-63
2023/05/15 08:13:47;;;;;;;23.10;16.13;;;15.70;99.90;;;;;;5014647;28;20260;-60
2023/05/15 08:16:14;;;;;;;21.70;16.83;;;16.00;99.90;;;;;;5014969;28;20208;-62
2023/05/15 08:18:41;;;;;;;17.10;14.50;;;16.30;99.90;;;;;;5015330;28;20249;-59
2023/05/15 08:21:08;;;;;;;17.97;15.43;;;16.60;99.90;;;;;;5026031;28;20205;-60
2023/05/15 08:23:35;;;;;;;21.70;16.83;;;17.00;99.90;;;;;;5028620;28;20384;-60
2023/05/15 08:26:02;;;;;;;23.67;16.33;;;16.60;99.90;;;;;;5028059;28;20270;-59
2023/05/15 08:28:29;;;;;;;18.70;15.57;;;16.80;1.00;;;;;;5025215;28;20218;-60
2023/05/15 08:30:56;;;;;;;19.27;15.27;;;16.70;99.90;;;;;;5027387;28;20309;-60
2023/05/15 08:33:23;;;;;;;22.47;17.10;;;16.80;99.90;;;;;;5018205;28;20308;-59
2023/05/15 08:35:50;;;;;;;20.97;16.93;;;16.20;99.90;;;;;;5026938;28;20924;-59
2023/05/15 08:38:17;;;;;;;17.57;14.80;;;15.80;99.90;;;;;;5027385;28;20203;-60
2023/05/15 08:40:47;;;;;;;16.00;13.37;;;16.00;99.90;;;;;;5028682;28;20203;-61
2023/05/15 08:43:16;;;;;;;17.70;14.70;;;15.90;99.90;;;;;;5024177;28;20208;-60
2023/05/15 08:45:43;;;;;;;20.33;14.90;;;16.20;99.90;;;;;;5029247;28;20707;-59
2023/05/15 08:48:14;;;;;;;24.33;15.83;;;16.10;99.90;;;;;;5028425;28;20200;-60
2023/05/15 08:50:43;;;;;;;19.80;15.60;;;16.30;99.90;;;;;;5028311;28;20211;-60
2023/05/15 08:53:13;;;;;;;19.17;14.90;;;16.30;99.90;;;;;;5029297;28;20266;-60
2023/05/15 08:55:41;;;;;;;19.07;15.20;;;16.50;99.90;;;;;;5028300;28;20269;-60
2023/05/15 08:58:08;;;;;;;19.40;15.07;;;16.70;99.90;;;;;;5027364;28;20212;-60
2023/05/15 09:00:36;;;;;;;17.47;14.77;;;16.70;99.90;;;;;;5023695;28;20632;-60
2023/05/15 09:03:04;;;;;;;17.70;14.87;;;16.50;99.90;;;;;;5028510;28;20206;-60
2023/05/15 09:05:31;;;;;;;20.07;15.43;;;16.10;99.90;;;;;;5015136;28;20477;-61
2023/05/15 09:08:02;;;;;;;19.63;14.70;;;16.00;99.90;;;;;;4650436;28;10000008;-61
2023/05/15 09:10:29;;;;;;;20.43;15.87;;;16.10;99.90;;;;;;5024101;28;20313;-61
2023/05/15 09:12:58;;;;;;;18.60;15.70;;;16.10;99.90;;;;;;5022246;28;20211;-61
2023/05/15 09:15:26;;;;;;;21.33;15.37;;;16.20;99.90;;;;;;5034059;28;20280;-61
2023/05/15 09:17:53;;;;;;;18.60;15.23;;;16.30;99.90;;;;;;5037719;28;20213;-61
2023/05/15 09:20:31;;;;;;;21.20;16.07;;;16.20;99.90;;;;;;5033734;28;20214;-61
2023/05/15 09:23:00;;;;;;;19.20;14.73;;;16.10;99.90;;;;;;5031742;28;20718;-61
2023/05/15 09:25:43;;;;;;;21.63;16.07;;;16.10;99.90;;;;;;5038674;28;20239;-62
2023/05/15 09:28:32;;;;;;;18.80;15.67;;;16.00;99.90;;;;;;5032317;28;20201;-61
2023/05/15 09:31:01;;;;;;;20.83;16.23;;;15.80;99.90;;;;;;5036345;28;20218;-60
2023/05/15 09:33:34;;;;;;;23.13;17.00;;;15.80;99.90;;;;;;5036970;28;20307;-62
2023/05/15 09:36:05;;;;;;;22.83;17.50;;;15.80;99.90;;;;;;5036673;28;20251;-62
2023/05/15 09:38:33;;;;;;;22.57;16.60;;;15.70;99.90;;;;;;5032506;28;20289;-61
2023/05/15 09:41:05;;;;;;;23.20;17.47;;;15.70;99.90;;;;;;5034306;28;20239;-62
2023/05/15 09:43:34;;;;;;;20.73;16.57;;;15.70;99.90;;;;;;5035559;28;20205;-61
2023/05/15 09:46:01;;;;;;;21.53;17.30;;;15.70;99.90;;;;;;5037131;28;20554;-62
2023/05/15 09:48:29;;;;;;;25.03;17.77;;;15.60;99.90;;;;;;5036760;28;20204;-61
2023/05/15 09:50:56;;;;;;;22.67;17.57;;;15.50;99.90;;;;;;5033777;28;20755;-62
2023/05/15 09:53:24;;;;;;;23.40;18.20;;;15.50;99.90;;;;;;5029082;28;20246;-61
2023/05/15 09:55:53;;;;;;;23.20;18.63;;;15.50;99.90;;;;;;5026034;28;20199;-62
2023/05/15 09:58:19;;;;;;;23.10;18.23;;;15.60;99.90;;;;;;5023783;28;20930;-62
2023/05/15 10:00:47;;;;;;;20.97;16.00;;;15.40;99.90;;;;;;5033278;28;20219;-62
2023/05/15 10:03:18;;;;;;;23.93;18.10;;;15.40;99.90;;;;;;5041661;28;20707;-62
2023/05/15 10:05:45;;;;;;;23.70;17.00;;;15.40;99.90;;;;;;5031533;28;20377;-61
2023/05/15 10:08:14;;;;;;;22.30;17.93;;;15.50;99.90;;;;;;5040148;28;20221;-61
2023/05/15 10:10:42;;;;;;;21.13;17.13;;;15.40;99.90;;;;;;5038349;28;20328;-61
2023/05/15 10:13:10;;;;;;;19.80;16.17;;;15.40;99.90;;;;;;5030464;28;20218;-62
2023/05/15 10:15:38;;;;;;;19.53;16.70;;;15.30;99.90;;;;;;5036069;28;20201;-62
2023/05/15 10:18:06;;;;;;;20.23;16.23;;;15.30;99.90;;;;;;5035645;28;20194;-62
2023/05/15 10:20:36;;;;;;;23.20;17.67;;;15.40;99.90;;;;;;5043010;28;20882;-66
2023/05/15 10:23:07;;;;;;;23.60;16.10;;;15.60;99.90;;;;;;5039647;28;20222;-62
2023/05/15 10:25:57;;;;;;;24.10;18.20;;;15.60;99.90;;;;;;5037958;28;20292;-63
2023/05/15 10:28:25;;;;;;;22.60;16.90;;;15.30;99.90;;;;;;5036168;28;20213;-61
2023/05/15 10:30:54;;;;;;;24.40;17.17;;;15.30;99.90;;;;;;5033541;28;20700;-60
2023/05/15 10:33:21;;;;;;;22.57;17.07;;;15.30;99.90;;;;;;5036230;28;20247;-61
2023/05/15 10:35:50;;;;;;;22.30;17.33;;;15.40;99.90;;;;;;5041972;28;20279;-61
2023/05/15 10:38:19;;;;;;;20.57;17.13;;;15.20;99.90;;;;;;5042970;28;20201;-61
2023/05/15 10:40:46;;;;;;;23.40;16.97;;;15.30;99.90;;;;;;5042580;28;20265;-61
2023/05/15 10:43:14;;;;;;;21.60;16.67;;;15.40;99.90;;;;;;5045449;28;20701;-61
2023/05/15 10:45:41;;;;;;;22.33;17.13;;;15.40;99.90;;;;;;5045192;28;20210;-62
2023/05/15 10:48:11;;;;;;;22.23;17.17;;;15.30;99.90;;;;;;5047460;28;20312;-61
2023/05/15 10:50:38;;;;;;;23.83;17.33;;;15.30;99.90;;;;;;5047077;28;20216;-61
2023/05/15 10:53:05;;;;;;;22.43;16.73;;;15.00;99.90;;;;;;5047789;28;20203;-61
2023/05/15 10:55:32;;;;;;;26.10;19.40;;;15.10;99.90;;;;;;5047890;28;20559;-62
2023/05/15 10:57:59;;;;;;;22.43;17.13;;;15.10;99.90;;;;;;5048278;28;20210;-61
2023/05/15 11:00:27;;;;;;;21.63;17.30;;;15.10;99.90;;;;;;5047062;28;20553;-61
2023/05/15 11:02:55;;;;;;;23.50;18.67;;;15.20;99.90;;;;;;5043169;28;20756;-61
2023/05/15 11:05:24;;;;;;;24.37;19.10;;;15.30;99.90;;;;;;5039911;28;20567;-62
2023/05/15 11:08:24;;;;;;;28.37;20.83;;;15.20;99.90;;;;;;5040636;28;20280;-61
2023/05/15 11:10:52;;;;;;;32.83;21.30;;;15.10;99.90;;;;;;5041508;28;20383;-61
2023/05/15 11:13:20;;;;;;;28.73;22.10;;;15.00;99.90;;;;;;5043167;28;20196;-61
2023/05/15 11:15:47;;;;;;;30.87;23.10;;;15.10;99.90;;;;;;5046866;28;20260;-61
2023/05/15 11:18:15;;;;;;;31.47;22.67;;;15.10;99.90;;;;;;5045713;28;20209;-62
2023/05/15 11:20:53;;;;;;;26.57;20.93;;;15.20;99.90;;;;;;5042439;28;20205;-61
2023/05/15 11:23:21;;;;;;;29.33;20.97;;;15.20;99.90;;;;;;5032734;28;20207;-61
2023/05/15 11:26:00;;;;;;;28.23;21.73;;;15.30;99.90;;;;;;5045919;28;20230;-61
2023/05/15 11:28:27;;;;;;;27.93;21.13;;;15.20;99.90;;;;;;5040793;28;20219;-63
2023/05/15 11:31:05;;;;;;;28.03;21.07;;;15.00;99.90;;;;;;5030125;28;20657;-61
2023/05/15 11:33:32;;;;;;;30.67;20.80;;;15.10;99.90;;;;;;5047203;28;20277;-61
2023/05/15 11:36:00;;;;;;;29.10;22.23;;;15.20;99.90;;;;;;5046592;28;20296;-63
2023/05/15 11:38:27;;;;;;;33.70;21.37;;;15.10;99.90;;;;;;5046032;28;20227;-61
2023/05/15 11:41:01;;;;;;;33.00;21.97;;;15.00;99.90;;;;;;5045964;28;20211;-60
2023/05/15 11:43:35;;;;;;;33.43;22.57;;;15.00;99.90;;;;;;5043280;28;20224;-61
2023/05/15 11:46:09;;;;;;;34.07;23.80;;;15.10;99.90;;;;;;5043978;28;20232;-61
2023/05/15 11:48:39;;;;;;;36.50;23.63;;;15.10;99.90;;;;;;5043335;28;20291;-61
2023/05/15 11:51:17;;;;;;;39.90;25.10;;;15.20;99.90;;;;;;5042773;28;20268;-62
2023/05/15 11:53:44;;;;;;;35.93;25.00;;;15.10;99.90;;;;;;5040798;28;20220;-61
2023/05/15 11:56:19;;;;;;;37.77;24.33;;;15.10;99.90;;;;;;5045918;28;20232;-61
2023/05/15 11:58:51;;;;;;;37.83;24.20;;;15.20;99.90;;;;;;5046307;28;20233;-61
2023/05/15 12:01:18;;;;;;;34.83;24.33;;;15.20;99.90;;;;;;5036918;28;20314;-61
2023/05/15 12:03:48;;;;;;;39.43;26.00;;;15.20;99.90;;;;;;5040885;28;20207;-61
2023/05/15 12:06:16;;;;;;;38.20;26.07;;;15.10;99.90;;;;;;5036963;28;20195;-61
2023/05/15 12:08:49;;;;;;;38.67;26.27;;;15.20;99.90;;;;;;5041071;28;20237;-61
2023/05/15 12:11:16;;;;;;;39.60;27.17;;;15.10;99.90;;;;;;5039777;28;20328;-61
2023/05/15 12:13:43;;;;;;;40.07;27.97;;;15.20;99.90;;;;;;5042121;28;20648;-61
2023/05/15 12:16:09;;;;;;;44.73;28.27;;;15.10;99.90;;;;;;5041795;28;20800;-61
2023/05/15 12:18:37;;;;;;;42.50;28.73;;;15.00;99.90;;;;;;5045241;28;20281;-61
2023/05/15 12:21:04;;;;;;;45.20;29.43;;;15.00;99.90;;;;;;5038746;28;20241;-61
2023/05/15 12:23:31;;;;;;;47.63;31.70;;;15.00;99.90;;;;;;5043192;28;20305;-61
2023/05/15 12:26:00;;;;;;;48.70;31.20;;;14.90;99.90;;;;;;5044326;28;20266;-62
2023/05/15 12:28:28;;;;;;;49.30;31.20;;;14.80;99.90;;;;;;5041966;28;20215;-61
2023/05/15 12:30:56;;;;;;;52.00;30.53;;;14.80;99.90;;;;;;5041461;28;20329;-61
2023/05/15 12:33:24;;;;;;;47.80;32.03;;;14.90;99.90;;;;;;5039106;28;20284;-62